Magnetawan, Canada
Current Conditions -  °F | °C
As of 4:00 PM on Saturday 22 Nov 2014 (Local Time) from CYYB Reporting Station
Drizzle Drizzle  
Wind Chill: 26°   Ceiling: 100
Heat Index: 34°   Visibility: 0mi
Dew Point: 34°   Wind: 10mph
Humidity: 100%   Direction: 250°WSW
Pressure: 29.75"   Gusts: 17mph
Location:  45.67°N, 79.63°W
Report Text: CYYB 222100Z 25009G15KT 0SM R08/0800FT/N -DZ BR VV001 01/01 A2975 RMK FG8 SLP091
Loading
Personal Weather Stations






























Interactive Weather Map New forecast layout! Learn more

10-Day Weather Forecast

Advertisements
Track Severe Weather on mobile